Time;durP1;ratioP1;P1;durP2;ratioP2;P2;SDS_P1;SDS_P2;PMS_P1;PMS_P2;Temp;Humidity;BMP_temperature;BMP_pressure;BME280_temperature;BME280_humidity;BME280_pressure;Samples;Min_cycle;Max_cycle;Signal;HPM_P1;HPM_P2
2022/01/17 00:02:29;;;;;;;3.20;2.93;;;-0.10;99.90;-0.70;97376.00;;;;5005026;28;20472;-84
2022/01/17 00:05:18;;;;;;;4.53;3.53;;;0.00;99.90;-0.80;97371.00;;;;5003554;28;20449;-84
2022/01/17 00:08:07;;;;;;;3.13;2.83;;;-0.10;99.90;-0.70;97369.00;;;;4994604;28;20434;-83
2022/01/17 00:10:56;;;;;;;4.10;3.67;;;0.40;99.90;-0.70;97373.00;;;;5000830;28;20834;-83
2022/01/17 00:13:47;;;;;;;3.93;3.27;;;-0.20;99.90;-0.70;97371.00;;;;4998678;28;20456;-83
2022/01/17 00:16:42;;;;;;;3.50;2.73;;;-0.30;99.90;-0.60;97378.00;;;;5004717;28;20428;-83
2022/01/17 00:19:38;;;;;;;3.43;2.60;;;-0.20;99.90;-0.70;97391.00;;;;4999559;28;20437;-84
2022/01/17 00:22:27;;;;;;;2.97;2.73;;;-0.30;99.90;-1.20;97381.00;;;;4996600;28;20978;-84
2022/01/17 00:25:16;;;;;;;3.87;3.00;;;-0.10;99.90;-0.90;97395.00;;;;5002624;28;20441;-83
2022/01/17 00:28:05;;;;;;;5.13;3.67;;;-0.30;99.90;-0.50;97381.00;;;;4994758;28;20438;-84
2022/01/17 00:30:55;;;;;;;4.63;3.43;;;-0.30;99.90;-0.40;97384.00;;;;5005314;28;20478;-84
2022/01/17 00:33:44;;;;;;;4.10;1.77;;;-0.20;99.90;-1.10;97393.00;;;;5007506;28;20469;-83
2022/01/17 00:36:33;;;;;;;4.17;3.07;;;-0.20;99.90;-0.70;97400.00;;;;4998326;28;20805;-84
2022/01/17 00:39:21;;;;;;;7.87;2.70;;;-0.10;99.90;-0.10;97398.00;;;;5004810;28;20953;-83
2022/01/17 00:42:10;;;;;;;3.30;2.90;;;-0.10;99.90;0.30;97405.00;;;;5002024;28;20422;-84
2022/01/17 00:45:01;;;;;;;3.80;3.30;;;0.10;99.90;-0.10;97409.00;;;;4996032;28;20437;-84
2022/01/17 00:47:51;;;;;;;4.63;2.90;;;0.30;99.90;-0.20;97402.00;;;;4994570;28;20791;-83
2022/01/17 00:50:41;;;;;;;2.93;2.60;;;0.60;99.90;0.00;97399.00;;;;4999731;28;20488;-83
2022/01/17 00:53:30;;;;;;;4.37;3.87;;;0.30;99.90;0.00;97409.00;;;;5008257;28;21745;-84
2022/01/17 00:56:22;;;;;;;8.70;4.20;;;0.30;99.90;0.00;97426.00;;;;5004125;28;20962;-84
2022/01/17 00:59:10;;;;;;;5.57;4.93;;;0.30;99.90;0.10;97425.00;;;;5006499;28;20429;-84
2022/01/17 01:01:59;;;;;;;8.00;3.93;;;0.30;99.90;0.10;97427.00;;;;5003579;28;20454;-83
2022/01/17 01:04:50;;;;;;;7.63;3.73;;;0.30;99.90;0.10;97434.00;;;;5007331;28;20430;-84
2022/01/17 01:07:39;;;;;;;4.77;3.40;;;0.40;99.90;0.20;97418.00;;;;5004403;28;20814;-84
2022/01/17 01:10:27;;;;;;;2.90;2.53;;;0.40;99.90;-0.50;97426.00;;;;4998660;28;20465;-83
2022/01/17 01:13:21;;;;;;;7.53;3.80;;;0.30;99.90;-0.40;97415.00;;;;5008485;28;20963;-84
2022/01/17 01:16:23;;;;;;;5.97;4.53;;;0.30;99.90;-0.20;97425.00;;;;5004875;28;20807;-84
2022/01/17 01:28:28;;;;;;;3.73;3.40;;;0.30;99.90;-0.10;97421.00;;;;5002936;28;20430;-84
2022/01/17 01:31:26;;;;;;;5.93;3.47;;;0.40;99.90;-0.30;97405.00;;;;4994956;28;20477;-84
2022/01/17 01:34:17;;;;;;;5.27;3.83;;;0.50;99.90;-0.20;97405.00;;;;5006245;28;20843;-83
2022/01/17 01:37:06;;;;;;;5.00;3.40;;;0.20;99.90;0.00;97400.00;;;;5004776;28;20438;-83
2022/01/17 01:39:56;;;;;;;3.83;3.17;;;0.20;99.90;-0.10;97408.00;;;;5007311;28;20868;-84
2022/01/17 01:42:46;;;;;;;3.33;2.93;;;0.20;99.90;-0.30;97396.00;;;;5000461;28;20453;-83
2022/01/17 01:45:35;;;;;;;3.10;2.80;;;0.20;99.90;-0.30;97388.00;;;;4994258;28;21019;-84
2022/01/17 01:48:24;;;;;;;4.77;3.30;;;0.10;99.90;-0.30;97393.00;;;;4991374;28;20448;-83
2022/01/17 01:51:14;;;;;;;3.80;2.80;;;0.10;99.90;-0.50;97389.00;;;;5008084;28;21053;-83
2022/01/17 01:54:04;;;;;;;3.73;2.87;;;0.00;99.90;-0.40;97382.00;;;;5005250;28;20461;-84
2022/01/17 01:56:54;;;;;;;4.57;2.87;;;0.00;99.90;-0.40;97374.00;;;;5001672;28;20433;-83
2022/01/17 01:59:42;;;;;;;3.37;2.90;;;-0.10;99.90;-0.40;97381.00;;;;4999957;28;20440;-83
2022/01/17 02:02:31;;;;;;;3.43;3.13;;;-0.10;99.90;-0.80;97378.00;;;;5001887;28;20484;-83
2022/01/17 02:05:20;;;;;;;7.67;4.97;;;-0.10;99.90;-0.70;97372.00;;;;5001077;28;20876;-84
2022/01/17 02:08:10;;;;;;;3.87;3.23;;;-0.20;99.90;-0.80;97373.00;;;;4991401;28;20438;-83
2022/01/17 02:10:59;;;;;;;4.90;3.33;;;-0.30;99.90;-0.70;97376.00;;;;4988996;28;20469;-84
2022/01/17 02:13:50;;;;;;;4.70;3.53;;;-0.30;99.90;-0.80;97361.00;;;;5006983;28;20442;-83
2022/01/17 02:16:40;;;;;;;4.03;3.00;;;-0.30;99.90;-1.00;97358.00;;;;5003254;28;20433;-84
2022/01/17 02:19:30;;;;;;;5.23;3.50;;;0.60;99.90;-0.80;97361.00;;;;5000272;28;20980;-83
2022/01/17 02:22:21;;;;;;;3.20;2.60;;;-0.40;99.90;-0.40;97358.00;;;;4996979;28;20978;-84
2022/01/17 02:25:11;;;;;;;5.27;3.00;;;-0.10;99.90;-0.40;97354.00;;;;4999945;28;20984;-83
2022/01/17 02:28:00;;;;;;;3.93;3.03;;;-0.20;99.90;-0.60;97351.00;;;;4995911;28;20433;-83
2022/01/17 02:30:50;;;;;;;4.00;3.30;;;-0.20;99.90;-0.60;97333.00;;;;4989202;28;20493;-83
2022/01/17 02:33:39;;;;;;;7.07;3.40;;;-0.20;99.90;-0.70;97343.00;;;;4998704;28;20445;-84
2022/01/17 02:36:28;;;;;;;6.03;4.20;;;-0.20;99.90;-0.70;97330.00;;;;5004721;28;20950;-83
2022/01/17 02:39:18;;;;;;;5.73;4.20;;;-0.30;99.90;-0.80;97338.00;;;;5002317;28;20447;-83
2022/01/17 02:42:08;;;;;;;7.67;5.23;;;-0.30;99.90;-0.80;97331.00;;;;5001458;28;20455;-83
2022/01/17 02:45:05;;;;;;;8.40;4.17;;;-0.30;99.90;-1.10;97325.00;;;;5001579;28;20444;-83
2022/01/17 02:47:54;;;;;;;6.40;4.37;;;0.30;99.90;-1.00;97327.00;;;;5001196;28;20425;-83
2022/01/17 02:50:43;;;;;;;9.40;4.73;;;-0.50;99.90;-1.30;97321.00;;;;4998206;28;20464;-83
2022/01/17 02:53:33;;;;;;;6.57;4.33;;;-0.50;99.90;-1.10;97322.00;;;;4994884;28;20461;-83
2022/01/17 02:56:24;;;;;;;3.93;3.40;;;-0.60;99.90;-1.20;97326.00;;;;5004279;28;20437;-83
2022/01/17 02:59:13;;;;;;;5.20;3.87;;;-0.70;99.90;-1.30;97327.00;;;;5000552;28;20432;-83
2022/01/17 03:02:03;;;;;;;8.83;4.47;;;-0.70;99.90;-1.40;97335.00;;;;5004080;28;20453;-83
2022/01/17 03:04:52;;;;;;;7.67;6.27;;;-0.80;99.90;-1.30;97329.00;;;;5000981;28;20438;-82
2022/01/17 03:07:40;;;;;;;7.13;5.30;;;-0.70;99.90;-1.30;97325.00;;;;4998824;28;20844;-83
2022/01/17 03:10:39;;;;;;;7.00;5.17;;;-0.80;99.90;-1.40;97330.00;;;;4998921;28;20805;-83
2022/01/17 03:13:32;;;;;;;6.17;4.93;;;-0.90;99.90;-1.60;97318.00;;;;4996690;28;20457;-83
2022/01/17 03:16:29;;;;;;;8.63;6.50;;;-0.90;99.90;-1.70;97316.00;;;;5007617;28;20433;-83
2022/01/17 03:19:18;;;;;;;7.90;6.20;;;-1.00;99.90;-1.50;97314.00;;;;5006693;28;21224;-83
2022/01/17 03:22:09;;;;;;;7.83;7.03;;;-1.10;99.90;-1.40;97317.00;;;;5000810;28;20487;-83
2022/01/17 03:24:57;;;;;;;11.77;5.37;;;-1.00;99.90;-1.60;97319.00;;;;5003066;28;20437;-83
2022/01/17 03:27:46;;;;;;;6.90;4.67;;;-1.10;99.90;-1.90;97335.00;;;;4997307;28;20449;-83
2022/01/17 03:30:37;;;;;;;7.37;5.83;;;-1.10;99.90;-2.00;97320.00;;;;5003673;28;20649;-83
2022/01/17 03:33:27;;;;;;;11.63;6.73;;;-1.20;99.90;-1.80;97321.00;;;;5005115;28;20470;-83
2022/01/17 03:36:16;;;;;;;8.20;5.77;;;-1.30;99.90;-1.70;97332.00;;;;5007781;28;20974;-83
2022/01/17 03:39:05;;;;;;;7.10;5.17;;;-1.30;99.90;-1.70;97326.00;;;;5006100;28;20418;-83
2022/01/17 03:41:53;;;;;;;6.13;5.30;;;-1.30;99.90;-1.90;97326.00;;;;5006068;28;20504;-83
2022/01/17 03:44:42;;;;;;;8.03;5.60;;;-1.30;99.90;-1.90;97320.00;;;;4999687;28;20425;-83
2022/01/17 03:47:34;;;;;;;7.57;5.53;;;-1.30;99.90;-1.80;97321.00;;;;5003882;28;21029;-83
2022/01/17 03:50:24;;;;;;;7.93;5.40;;;-0.90;99.90;-1.90;97312.00;;;;5003436;28;20429;-83
2022/01/17 03:53:13;;;;;;;4.67;4.27;;;-1.30;99.90;-1.90;97315.00;;;;5001294;28;20878;-84
2022/01/17 03:56:02;;;;;;;4.87;3.57;;;-1.40;99.90;-1.80;97331.00;;;;5009119;28;20433;-83
2022/01/17 03:58:51;;;;;;;7.93;4.40;;;-1.40;99.90;-1.70;97323.00;;;;5005602;28;20471;-83
2022/01/17 04:01:40;;;;;;;4.40;3.70;;;-0.10;99.90;-1.60;97321.00;;;;5004961;28;20961;-83
2022/01/17 04:04:30;;;;;;;6.33;4.00;;;-1.30;99.90;-1.80;97318.00;;;;5001714;28;20523;-83
2022/01/17 04:07:19;;;;;;;3.87;3.53;;;-1.30;99.90;-1.60;97317.00;;;;5008001;28;20433;-83
2022/01/17 04:10:09;;;;;;;4.97;3.20;;;-1.20;99.90;-1.80;97314.00;;;;4997970;28;20421;-83
2022/01/17 04:13:01;;;;;;;5.73;3.57;;;-1.20;99.90;-2.00;97311.00;;;;5001123;28;20471;-83
2022/01/17 04:15:50;;;;;;;5.73;3.30;;;-1.30;99.90;-1.70;97312.00;;;;5000790;28;20433;-83
2022/01/17 04:18:39;;;;;;;4.40;2.87;;;-1.30;99.90;-1.70;97315.00;;;;4997089;28;20434;-83
2022/01/17 04:21:34;;;;;;;6.30;3.63;;;-1.30;99.90;-1.70;97298.00;;;;5005385;28;20452;-83
2022/01/17 04:24:23;;;;;;;3.70;2.80;;;-1.30;99.90;-1.70;97300.00;;;;5001145;28;20997;-83
2022/01/17 04:27:12;;;;;;;4.57;3.60;;;-1.30;99.90;-1.70;97307.00;;;;4998743;28;20442;-83
2022/01/17 04:30:01;;;;;;;6.33;3.20;;;-1.30;99.90;-1.70;97305.00;;;;5001550;28;20808;-83
2022/01/17 04:32:50;;;;;;;5.40;3.13;;;-1.20;99.90;-1.70;97308.00;;;;4994833;28;20860;-83
2022/01/17 04:35:39;;;;;;;4.57;3.40;;;-1.30;99.90;-2.00;97314.00;;;;5001068;28;20433;-83
2022/01/17 04:38:30;;;;;;;3.43;3.13;;;-1.30;99.90;-1.90;97316.00;;;;5008964;28;20437;-83
2022/01/17 04:41:21;;;;;;;7.27;4.70;;;-1.30;99.90;-1.90;97311.00;;;;5005097;28;20425;-83
2022/01/17 04:47:16;;;;;;;4.10;2.70;;;-1.40;99.90;-2.30;97300.00;;;;5003084;28;20677;-83
2022/01/17 04:50:07;;;;;;;3.57;3.27;;;-1.50;99.90;-2.20;97295.00;;;;5002551;28;20430;-83
2022/01/17 04:52:57;;;;;;;5.13;4.40;;;-1.60;99.90;-2.00;97286.00;;;;5004319;28;20462;-83
2022/01/17 04:55:48;;;;;;;6.53;4.27;;;-1.60;99.90;-1.90;97279.00;;;;4993658;28;20449;-84
2022/01/17 04:58:37;;;;;;;5.30;4.20;;;-1.60;99.90;-2.00;97288.00;;;;5005526;28;20457;-83
2022/01/17 05:01:26;;;;;;;4.70;3.33;;;-1.50;99.90;-2.30;97291.00;;;;5007064;28;20984;-83
2022/01/17 05:04:14;;;;;;;4.53;2.77;;;-1.60;99.90;-2.20;97301.00;;;;5003582;28;20473;-84
2022/01/17 05:07:05;;;;;;;4.23;3.30;;;-1.60;99.90;-2.10;97306.00;;;;5000739;28;20435;-84
2022/01/17 05:09:54;;;;;;;3.20;2.90;;;-1.60;99.90;-2.30;97295.00;;;;4997298;28;20430;-84
2022/01/17 05:12:45;;;;;;;2.80;2.47;;;-1.70;99.90;-2.40;97297.00;;;;5010523;28;20534;-84
2022/01/17 05:15:36;;;;;;;5.73;3.83;;;-1.70;99.90;-2.40;97298.00;;;;4998664;28;20436;-83
2022/01/17 05:19:48;;;;;;;7.67;3.47;;;-1.70;99.90;-2.30;97292.00;;;;5005506;28;20437;-86
2022/01/17 05:21:34;;;;;;;5.10;3.50;;;-1.80;99.90;-2.30;97286.00;;;;5009830;28;20458;-86
2022/01/17 05:24:23;;;;;;;2.60;2.30;;;-1.80;99.90;-2.50;97292.00;;;;5004515;28;20453;-83
2022/01/17 05:27:12;;;;;;;3.77;2.73;;;-1.80;99.90;-2.20;97301.00;;;;5009851;28;20436;-84
2022/01/17 05:30:05;;;;;;;2.97;2.73;;;-1.80;99.90;-2.10;97297.00;;;;5009469;28;20437;-84
2022/01/17 05:32:54;;;;;;;4.03;2.57;;;-1.70;99.90;-1.90;97283.00;;;;5009429;28;20476;-83
2022/01/17 05:35:43;;;;;;;3.30;2.67;;;-1.70;99.90;-1.70;97278.00;;;;4999718;28;20486;-83
2022/01/17 05:38:33;;;;;;;2.77;1.97;;;-1.50;99.90;-1.70;97285.00;;;;4999581;28;20449;-83
2022/01/17 05:41:22;;;;;;;2.30;2.10;;;-1.50;99.90;-1.80;97301.00;;;;5009304;28;20437;-83
2022/01/17 05:44:11;;;;;;;3.03;2.17;;;-1.40;99.90;-1.60;97304.00;;;;4995899;28;20960;-84
2022/01/17 05:47:02;;;;;;;2.40;2.20;;;-1.30;99.90;-1.40;97302.00;;;;5012208;28;20437;-84
2022/01/17 05:49:51;;;;;;;4.17;2.13;;;-1.20;99.90;-1.60;97319.00;;;;5007333;28;20429;-83
2022/01/17 05:52:40;;;;;;;2.90;2.33;;;-1.20;99.90;-1.60;97314.00;;;;5000375;28;20480;-84
2022/01/17 05:55:29;;;;;;;3.57;2.33;;;-1.10;99.90;-1.50;97313.00;;;;5003092;28;20425;-83
2022/01/17 05:58:18;;;;;;;2.80;2.50;;;-1.20;99.90;-1.50;97310.00;;;;5006564;28;20445;-83
2022/01/17 06:01:08;;;;;;;2.67;2.40;;;-1.20;99.90;-1.60;97327.00;;;;5000741;28;20427;-83
2022/01/17 06:03:58;;;;;;;2.63;2.43;;;-1.20;99.90;-1.60;97316.00;;;;5004594;28;20479;-83
2022/01/17 06:06:47;;;;;;;2.43;2.23;;;-1.20;99.90;-1.50;97312.00;;;;5005088;28;20433;-83
2022/01/17 06:09:36;;;;;;;4.43;2.87;;;-1.20;99.90;-1.50;97332.00;;;;5004209;28;20430;-83
2022/01/17 06:12:25;;;;;;;5.23;2.87;;;-0.50;99.90;-1.50;97329.00;;;;4994367;28;20477;-83
2022/01/17 06:15:13;;;;;;;3.93;3.03;;;-1.20;99.90;-1.50;97307.00;;;;5008310;28;20424;-83
2022/01/17 06:18:03;;;;;;;2.93;2.73;;;-1.20;99.90;-1.50;97311.00;;;;5008674;28;20436;-83
2022/01/17 06:20:53;;;;;;;6.60;4.43;;;-1.10;99.90;-1.40;97322.00;;;;5008649;28;20426;-83
2022/01/17 06:23:42;;;;;;;6.07;4.03;;;-1.10;99.90;-1.40;97332.00;;;;5007440;28;20444;-84
2022/01/17 06:26:31;;;;;;;4.80;3.53;;;-1.00;99.90;-1.40;97314.00;;;;5002370;28;20533;-84
2022/01/17 06:29:20;;;;;;;6.53;3.70;;;-1.00;99.90;-0.80;97312.00;;;;5006075;28;20942;-84
2022/01/17 06:32:09;;;;;;;2.77;2.30;;;-0.10;99.90;0.00;97321.00;;;;5001470;28;20449;-84
2022/01/17 06:35:13;;;;;;;4.03;3.10;;;-0.40;99.90;-0.50;97307.00;;;;5002773;28;20452;-83
2022/01/17 06:38:03;;;;;;;4.67;2.40;;;-0.30;99.90;-0.10;97302.00;;;;5000272;28;20419;-83
2022/01/17 06:40:52;;;;;;;2.07;1.20;;;-0.10;99.90;0.50;97294.00;;;;4996508;28;20943;-84
2022/01/17 06:43:41;;;;;;;0.93;0.80;;;0.20;99.90;1.30;97301.00;;;;5006343;28;20448;-84
2022/01/17 06:46:30;;;;;;;1.17;1.03;;;0.50;99.90;2.40;97325.00;;;;5007680;28;20430;-84
2022/01/17 06:49:19;;;;;;;0.70;0.70;;;1.10;99.90;2.70;97325.00;;;;5005728;28;20455;-84
2022/01/17 06:52:08;;;;;;;0.97;0.70;;;1.70;99.90;3.00;97310.00;;;;5003136;28;20469;-87
2022/01/17 06:54:58;;;;;;;0.97;0.77;;;2.20;99.90;3.20;97322.00;;;;5007806;28;20961;-85
2022/01/17 06:57:47;;;;;;;0.87;0.70;;;2.60;99.90;3.20;97300.00;;;;4995617;28;20429;-85
2022/01/17 07:00:36;;;;;;;1.07;0.80;;;2.90;99.90;3.30;97312.00;;;;5009401;28;20501;-85
2022/01/17 07:03:25;;;;;;;1.03;1.03;;;3.10;99.90;2.80;97319.00;;;;5008791;28;20475;-84
2022/01/17 07:06:14;;;;;;;1.93;1.73;;;3.10;99.90;2.70;97292.00;;;;4997312;28;20447;-84
2022/01/17 07:09:05;;;;;;;1.20;1.10;;;3.10;99.90;3.00;97297.00;;;;5004628;28;20843;-84
2022/01/17 07:11:58;;;;;;;1.60;1.13;;;3.10;99.90;3.00;97292.00;;;;5008417;28;20428;-84
2022/01/17 07:14:47;;;;;;;1.17;0.77;;;3.10;99.90;3.20;97282.00;;;;5006687;28;20476;-84
2022/01/17 07:17:36;;;;;;;1.13;0.90;;;3.10;99.90;3.30;97273.00;;;;4993155;28;20442;-84
2022/01/17 07:20:26;;;;;;;1.23;1.10;;;3.30;99.90;3.10;97276.00;;;;4996103;28;20445;-84
2022/01/17 07:23:15;;;;;;;1.03;0.97;;;3.30;99.90;3.00;97283.00;;;;5004770;28;20472;-84
2022/01/17 07:26:04;;;;;;;0.87;0.83;;;3.30;99.90;3.00;97310.00;;;;5003221;28;20433;-84
2022/01/17 07:28:54;;;;;;;5.40;0.70;;;3.20;99.90;3.00;97328.00;;;;5008986;28;20966;-90
2022/01/17 07:31:43;;;;;;;0.80;0.80;;;3.20;99.90;3.20;97346.00;;;;5006871;28;20468;-89
2022/01/17 07:34:32;;;;;;;0.80;0.73;;;3.10;99.90;3.20;97360.00;;;;5010695;28;20464;-89
2022/01/17 07:37:21;;;;;;;0.83;0.40;;;3.20;99.90;4.20;97373.00;;;;5011591;28;20436;-88
2022/01/17 07:40:12;;;;;;;1.33;1.00;;;3.40;99.90;4.10;97390.00;;;;5008134;28;20428;-88
2022/01/17 07:43:02;;;;;;;0.47;0.47;;;3.60;99.90;4.40;97396.00;;;;5010788;28;20463;-88
2022/01/17 07:46:03;;;;;;;9.57;5.57;;;3.90;99.90;4.20;97413.00;;;;5010873;28;20432;-88
2022/01/17 07:49:03;;;;;;;2.77;1.67;;;4.10;99.90;4.20;97403.00;;;;5010266;28;20447;-87
2022/01/17 07:51:59;;;;;;;1.97;1.63;;;4.20;99.90;4.40;97416.00;;;;5002871;28;20962;-88
2022/01/17 07:54:49;;;;;;;1.10;0.90;;;4.30;99.90;4.60;97388.00;;;;5012043;28;20464;-87
2022/01/17 07:57:39;;;;;;;1.90;0.77;;;4.30;99.90;4.50;97358.00;;;;5012922;28;20198;-87
2022/01/17 08:00:28;;;;;;;0.40;0.40;;;4.40;99.90;4.80;97370.00;;;;5010589;28;20206;-88
2022/01/17 08:03:18;;;;;;;0.93;0.60;;;4.50;99.90;4.70;97371.00;;;;5001813;28;20594;-88
2022/01/17 08:06:07;;;;;;;0.57;0.57;;;4.60;99.90;4.90;97367.00;;;;5006106;28;20216;-88
2022/01/17 08:08:57;;;;;;;0.57;0.57;;;4.60;99.90;5.00;97368.00;;;;5010894;28;20687;-88
2022/01/17 08:11:49;;;;;;;0.67;0.33;;;4.70;99.90;4.80;97348.00;;;;5005838;28;20210;-88
2022/01/17 08:14:40;;;;;;;2.20;0.80;;;4.80;99.90;4.90;97366.00;;;;5000303;28;21037;-88
2022/01/17 08:17:29;;;;;;;0.50;0.50;;;4.80;99.90;4.50;97379.00;;;;5004018;28;20589;-88
2022/01/17 08:20:20;;;;;;;1.17;0.73;;;4.70;99.90;4.40;97374.00;;;;4994273;28;20569;-88
2022/01/17 08:23:09;;;;;;;1.23;0.70;;;4.60;99.90;4.70;97362.00;;;;4997232;28;20230;-87
2022/01/17 08:25:58;;;;;;;0.73;0.70;;;4.60;99.90;4.70;97345.00;;;;5003789;28;20208;-88
2022/01/17 08:28:48;;;;;;;1.37;0.50;;;4.60;99.90;4.70;97337.00;;;;5011428;28;20295;-88
2022/01/17 08:31:37;;;;;;;4.50;0.80;;;4.60;99.90;4.20;97327.00;;;;5010447;28;20209;-88
2022/01/17 08:34:25;;;;;;;3.10;0.80;;;4.50;99.90;4.30;97324.00;;;;5010119;28;20611;-88
2022/01/17 08:37:16;;;;;;;0.63;0.63;;;4.40;99.90;4.00;97310.00;;;;5010665;28;20213;-87
2022/01/17 08:40:09;;;;;;;3.90;3.10;;;4.30;99.90;4.00;97313.00;;;;5011183;28;20198;-83
2022/01/17 08:42:58;;;;;;;1.33;1.23;;;4.30;99.90;4.00;97300.00;;;;5011888;28;20222;-83
2022/01/17 08:45:48;;;;;;;0.87;0.87;;;4.20;99.90;4.00;97314.00;;;;5010366;28;20217;-83
2022/01/17 08:48:39;;;;;;;0.83;0.83;;;4.20;99.90;4.00;97302.00;;;;5009647;28;20202;-83
2022/01/17 08:51:27;;;;;;;0.93;0.93;;;4.10;99.90;3.90;97283.00;;;;5008952;28;20210;-83
2022/01/17 08:54:18;;;;;;;1.27;0.83;;;4.10;99.90;3.80;97283.00;;;;5009344;28;20240;-83
2022/01/17 08:57:07;;;;;;;1.30;1.20;;;4.00;99.90;3.70;97296.00;;;;5009264;28;20198;-83
2022/01/17 08:59:55;;;;;;;2.30;1.03;;;3.90;99.90;3.60;97309.00;;;;5009223;28;20201;-83
2022/01/17 09:02:44;;;;;;;1.10;1.00;;;3.90;99.90;3.60;97307.00;;;;4999305;28;20618;-82
2022/01/17 09:05:35;;;;;;;0.80;0.80;;;3.80;99.90;3.60;97329.00;;;;5009020;28;20627;-82
2022/01/17 09:08:24;;;;;;;2.23;0.80;;;3.70;99.90;3.60;97346.00;;;;5009702;28;20258;-83
2022/01/17 09:11:14;;;;;;;0.83;0.80;;;3.70;99.90;3.50;97367.00;;;;5007502;28;20595;-83
2022/01/17 09:14:03;;;;;;;9.83;6.03;;;3.70;99.90;3.30;97394.00;;;;5000770;28;20265;-83
2022/01/17 09:16:52;;;;;;;6.80;3.80;;;3.70;99.90;3.30;97331.00;;;;5001390;28;20439;-83
2022/01/17 09:19:45;;;;;;;1.53;1.43;;;3.60;99.90;3.60;97322.00;;;;4998903;28;20935;-82
2022/01/17 09:22:34;;;;;;;2.60;1.83;;;3.60;99.90;3.60;97317.00;;;;4997837;28;20442;-82
2022/01/17 09:25:23;;;;;;;1.80;1.60;;;3.60;99.90;3.70;97306.00;;;;5001800;28;20501;-83
2022/01/17 09:28:13;;;;;;;1.23;1.10;;;3.60;99.90;3.90;97306.00;;;;4999462;28;20207;-83
2022/01/17 09:31:02;;;;;;;0.80;0.80;;;3.70;99.90;4.10;97291.00;;;;4995601;28;20233;-83
2022/01/17 09:33:51;;;;;;;3.30;1.80;;;3.70;99.90;4.00;97288.00;;;;5009473;28;20765;-83
2022/01/17 09:36:40;;;;;;;2.70;1.73;;;3.90;99.90;3.50;97313.00;;;;5004364;28;20601;-83
2022/01/17 09:39:29;;;;;;;5.90;5.30;;;3.90;99.90;3.80;97303.00;;;;5002706;28;20687;-83
2022/01/17 09:42:18;;;;;;;2.60;2.40;;;3.90;99.90;4.10;97290.00;;;;4996044;28;20207;-83
2022/01/17 09:45:12;;;;;;;4.37;3.33;;;3.90;99.90;3.90;97282.00;;;;4999041;28;20202;-82
2022/01/17 09:48:02;;;;;;;3.10;2.77;;;4.00;99.90;4.00;97289.00;;;;5002776;28;20202;-83
2022/01/17 09:51:03;;;;;;;1.53;1.43;;;3.90;99.90;4.00;97279.00;;;;4994491;28;20690;-83
2022/01/17 09:53:54;;;;;;;4.70;1.90;;;4.00;99.90;4.00;97258.00;;;;4998088;28;20687;-83
2022/01/17 09:56:43;;;;;;;5.43;4.47;;;4.00;99.90;3.40;97272.00;;;;5009523;28;20425;-83
2022/01/17 09:59:32;;;;;;;3.30;3.00;;;4.00;99.90;3.70;97260.00;;;;5009143;28;20206;-83
2022/01/17 10:02:22;;;;;;;2.57;2.37;;;3.90;99.90;4.00;97253.00;;;;5003956;28;20716;-82
2022/01/17 10:05:12;;;;;;;1.57;1.40;;;3.90;99.90;4.20;97267.00;;;;5005396;28;20245;-84
2022/01/17 10:08:04;;;;;;;1.40;1.20;;;4.00;99.90;4.60;97262.00;;;;4990801;28;20201;-83
2022/01/17 10:10:57;;;;;;;3.30;2.57;;;4.10;99.90;4.30;97235.00;;;;4997347;28;20949;-82
2022/01/17 10:13:47;;;;;;;1.60;1.50;;;4.20;99.90;4.70;97242.00;;;;5004838;28;20218;-83
2022/01/17 10:16:42;;;;;;;2.43;2.17;;;4.40;99.90;5.30;97222.00;;;;5000547;28;20229;-82
2022/01/17 10:19:33;;;;;;;2.20;1.87;;;4.60;99.90;6.10;97205.00;;;;5001792;28;20213;-82
2022/01/17 10:22:31;;;;;;;2.10;1.47;;;5.00;99.90;6.60;97215.00;;;;4998612;28;20711;-82
2022/01/17 10:25:39;;;;;;;2.00;1.80;;;5.50;99.90;6.90;97209.00;;;;5009361;28;20623;-83
2022/01/17 10:28:48;;;;;;;6.43;3.93;;;5.80;99.90;6.50;97205.00;;;;5008618;28;20202;-83
2022/01/17 10:34:54;;;;;;;3.63;2.03;;;6.50;99.90;7.00;97176.00;;;;5005566;28;20248;-83
2022/01/17 10:38:04;;;;;;;5.40;2.20;;;6.70;99.90;7.60;97185.00;;;;4993789;28;20225;-83
2022/01/17 10:40:57;;;;;;;3.87;2.30;;;7.50;99.60;8.60;97171.00;;;;4994160;28;20207;-83
2022/01/17 10:43:47;;;;;;;4.13;1.73;;;8.30;95.10;9.70;97157.00;;;;4999459;28;20243;-84
2022/01/17 10:46:36;;;;;;;0.20;0.20;;;8.80;85.00;8.90;97131.00;;;;4993366;28;20224;-83
2022/01/17 10:49:51;;;;;;;0.37;0.37;;;9.60;68.50;9.30;97129.00;;;;4994614;28;20201;-84
2022/01/17 10:52:43;;;;;;;6.73;0.77;;;9.70;64.50;9.70;97120.00;;;;5007181;28;20221;-84
2022/01/17 10:55:35;;;;;;;0.87;0.40;;;9.80;63.70;9.90;97126.00;;;;5007697;28;20710;-84
2022/01/17 10:58:27;;;;;;;0.37;0.30;;;10.10;62.00;9.50;97104.00;;;;4994581;28;20218;-83
2022/01/17 11:01:16;;;;;;;0.33;0.23;;;10.20;58.70;10.20;97123.00;;;;4997963;28;20209;-84
2022/01/17 11:04:08;;;;;;;0.73;0.40;;;10.30;58.30;11.30;97132.00;;;;5002310;28;20284;-85
2022/01/17 11:07:05;;;;;;;0.40;0.40;;;10.70;58.30;10.20;97102.00;;;;4999399;28;20682;-86
2022/01/17 11:09:57;;;;;;;0.53;0.33;;;11.00;55.80;10.40;97114.00;;;;5004324;28;20207;-85
2022/01/17 11:12:47;;;;;;;0.40;0.40;;;10.90;55.60;10.00;97102.00;;;;4997320;28;20219;-84
2022/01/17 11:15:38;;;;;;;0.27;0.17;;;10.60;55.20;10.80;97083.00;;;;5000545;28;20579;-84
2022/01/17 11:18:29;;;;;;;0.30;0.23;;;10.80;56.30;10.60;97076.00;;;;5007727;28;20202;-84
2022/01/17 11:21:18;;;;;;;8.50;1.03;;;10.90;54.90;12.40;97099.00;;;;5005491;28;20212;-84
2022/01/17 11:24:09;;;;;;;0.37;0.37;;;11.30;55.80;13.10;97083.00;;;;5006367;28;20229;-85
2022/01/17 11:26:58;;;;;;;2.57;0.87;;;11.90;55.80;12.00;97073.00;;;;5000875;28;20202;-85
2022/01/17 11:29:48;;;;;;;1.20;1.10;;;12.50;52.50;12.10;97061.00;;;;5009747;28;20213;-86
2022/01/17 11:32:37;;;;;;;0.60;0.40;;;12.40;52.70;11.70;97047.00;;;;5011615;28;20226;-84
2022/01/17 11:35:27;;;;;;;0.87;0.30;;;12.30;51.70;11.00;97046.00;;;;5009434;28;20612;-83
2022/01/17 11:38:19;;;;;;;0.50;0.40;;;11.80;51.20;12.20;97052.00;;;;5011511;28;20652;-85
2022/01/17 11:41:23;;;;;;;2.90;1.80;;;12.00;52.10;12.40;97074.00;;;;5009035;28;20194;-84
2022/01/17 11:44:12;;;;;;;2.73;0.40;;;12.30;51.20;11.60;97064.00;;;;5002585;28;20225;-84
2022/01/17 11:47:06;;;;;;;2.20;0.80;;;12.40;50.50;11.20;97072.00;;;;5009423;28;20740;-84
2022/01/17 11:49:58;;;;;;;0.27;0.27;;;11.90;50.80;10.90;97061.00;;;;5010446;28;20264;-86
2022/01/17 11:52:46;;;;;;;0.70;0.50;;;11.80;50.90;10.70;97047.00;;;;5010766;28;20605;-84
2022/01/17 11:55:46;;;;;;;1.23;0.77;;;11.50;50.80;11.00;97040.00;;;;5008000;28;20237;-83
2022/01/17 11:58:43;;;;;;;0.50;0.30;;;11.50;51.20;11.50;97042.00;;;;5011781;28;20212;-84
2022/01/17 12:01:32;;;;;;;0.23;0.23;;;11.70;51.50;12.30;97044.00;;;;5010090;28;20590;-85
2022/01/17 12:04:21;;;;;;;0.43;0.43;;;12.00;51.20;12.60;97042.00;;;;5004409;28;20234;-84
2022/01/17 12:07:10;;;;;;;1.60;0.47;;;12.30;50.40;13.60;97028.00;;;;5001564;28;20221;-84
2022/01/17 12:10:08;;;;;;;0.90;0.57;;;12.90;50.50;13.10;97016.00;;;;5006729;28;20575;-84
2022/01/17 12:13:38;;;;;;;0.20;0.20;;;13.10;49.10;12.40;96984.00;;;;5009938;28;20609;-84
2022/01/17 12:16:37;;;;;;;0.20;0.20;;;13.10;48.10;12.20;96924.00;;;;5009510;28;20221;-87
2022/01/17 12:19:26;;;;;;;2.13;0.43;;;13.20;48.00;12.10;96975.00;;;;5002309;28;20285;-84
2022/01/17 12:22:15;;;;;;;0.20;0.20;;;12.60;49.40;12.10;96981.00;;;;4999334;28;20209;-85
2022/01/17 12:25:34;;;;;;;0.57;0.30;;;12.60;49.10;12.60;96982.00;;;;5009902;28;20219;-86
2022/01/17 12:28:25;;;;;;;0.33;0.33;;;12.80;48.70;11.90;96959.00;;;;5010054;28;20202;-86
2022/01/17 12:31:14;;;;;;;1.63;0.50;;;12.70;48.20;13.60;96971.00;;;;5009134;28;20684;-85
2022/01/17 12:34:22;;;;;;;2.80;1.00;;;13.00;49.10;12.70;96932.00;;;;5010204;28;20218;-86
2022/01/17 12:37:34;;;;;;;0.80;0.40;;;13.30;47.70;12.00;96919.00;;;;5006202;28;20226;-84
2022/01/17 12:40:26;;;;;;;1.13;0.30;;;13.10;47.20;12.10;96926.00;;;;4994280;28;20782;-85
2022/01/17 12:43:18;;;;;;;4.33;1.03;;;12.80;47.50;12.20;96909.00;;;;4998545;28;20725;-88
2022/01/17 12:46:18;;;;;;;2.40;1.10;;;12.80;47.80;13.50;96929.00;;;;5002895;28;20213;-86
2022/01/17 12:49:07;;;;;;;2.93;0.80;;;13.20;47.40;13.60;96923.00;;;;5009207;28;20285;-85
2022/01/17 12:52:00;;;;;;;0.90;0.40;;;13.40;47.20;14.60;96948.00;;;;5009782;28;20208;-86
2022/01/17 12:54:49;;;;;;;0.30;0.20;;;13.90;47.20;15.70;96951.00;;;;5006037;28;20202;-87
2022/01/17 12:57:44;;;;;;;0.37;0.33;;;14.70;46.80;14.50;96926.00;;;;5010293;28;20588;-85
2022/01/17 13:00:33;;;;;;;0.30;0.30;;;15.30;44.90;13.30;96938.00;;;;5009817;28;20210;-89
2022/01/17 13:03:24;;;;;;;6.90;0.90;;;14.70;44.30;15.70;96937.00;;;;5008006;28;20797;-89